sensor_id;sensor_type;location;lat;lon;timestamp;P1;durP1;ratioP1;P2;durP2;ratioP2
14874;SDS011;7529;48.170;17.138;2022-09-12T00:01:52;16.98;;;15.98;;
14874;SDS011;7529;48.170;17.138;2022-09-12T00:06:09;21.85;;;20.65;;
14874;SDS011;7529;48.170;17.138;2022-09-12T00:10:26;21.05;;;19.85;;
14874;SDS011;7529;48.170;17.138;2022-09-12T00:14:38;17.42;;;16.52;;
14874;SDS011;7529;48.170;17.138;2022-09-12T00:18:49;17.85;;;16.80;;
14874;SDS011;7529;48.170;17.138;2022-09-12T00:23:02;23.58;;;22.23;;
14874;SDS011;7529;48.170;17.138;2022-09-12T00:27:14;23.70;;;22.08;;
14874;SDS011;7529;48.170;17.138;2022-09-12T00:31:26;31.73;;;30.05;;
14874;SDS011;7529;48.170;17.138;2022-09-12T00:35:42;25.13;;;23.73;;
14874;SDS011;7529;48.170;17.138;2022-09-12T00:39:56;38.28;;;36.25;;
14874;SDS011;7529;48.170;17.138;2022-09-12T00:48:27;38.85;;;36.72;;
14874;SDS011;7529;48.170;17.138;2022-09-12T00:52:53;21.60;;;20.50;;
14874;SDS011;7529;48.170;17.138;2022-09-12T00:57:17;94.47;;;89.55;;
14874;SDS011;7529;48.170;17.138;2022-09-12T01:01:33;121.60;;;115.43;;
14874;SDS011;7529;48.170;17.138;2022-09-12T01:05:48;30.70;;;29.13;;
14874;SDS011;7529;48.170;17.138;2022-09-12T01:10:32;150.45;;;142.15;;
14874;SDS011;7529;48.170;17.138;2022-09-12T01:14:47;117.10;;;111.13;;
14874;SDS011;7529;48.170;17.138;2022-09-12T01:32:59;188.75;;;177.70;;
14874;SDS011;7529;48.170;17.138;2022-09-12T01:47:37;148.68;;;140.82;;
14874;SDS011;7529;48.170;17.138;2022-09-12T01:52:22;47.08;;;44.67;;
14874;SDS011;7529;48.170;17.138;2022-09-12T01:56:39;25.17;;;23.98;;
14874;SDS011;7529;48.170;17.138;2022-09-12T02:05:33;33.55;;;31.83;;
14874;SDS011;7529;48.170;17.138;2022-09-12T02:10:12;32.63;;;30.90;;
14874;SDS011;7529;48.170;17.138;2022-09-12T02:14:39;29.10;;;27.50;;
14874;SDS011;7529;48.170;17.138;2022-09-12T02:18:58;19.95;;;18.95;;
14874;SDS011;7529;48.170;17.138;2022-09-12T02:23:21;58.75;;;55.60;;
14874;SDS011;7529;48.170;17.138;2022-09-12T02:27:43;25.90;;;24.63;;
14874;SDS011;7529;48.170;17.138;2022-09-12T02:32:06;38.58;;;36.70;;
14874;SDS011;7529;48.170;17.138;2022-09-12T02:41:43;24.20;;;23.02;;
14874;SDS011;7529;48.170;17.138;2022-09-12T02:45:55;25.85;;;24.42;;
14874;SDS011;7529;48.170;17.138;2022-09-12T02:50:07;22.65;;;21.50;;
14874;SDS011;7529;48.170;17.138;2022-09-12T02:54:19;17.50;;;16.58;;
14874;SDS011;7529;48.170;17.138;2022-09-12T02:58:31;18.98;;;17.98;;
14874;SDS011;7529;48.170;17.138;2022-09-12T03:03:27;16.27;;;15.50;;
14874;SDS011;7529;48.170;17.138;2022-09-12T03:17:12;26.95;;;25.70;;
14874;SDS011;7529;48.170;17.138;2022-09-12T03:21:45;16.35;;;15.27;;
14874;SDS011;7529;48.170;17.138;2022-09-12T03:26:31;16.40;;;15.40;;
14874;SDS011;7529;48.170;17.138;2022-09-12T03:30:52;13.60;;;12.90;;
14874;SDS011;7529;48.170;17.138;2022-09-12T03:35:05;30.85;;;29.20;;
14874;SDS011;7529;48.170;17.138;2022-09-12T03:39:18;14.65;;;13.80;;
14874;SDS011;7529;48.170;17.138;2022-09-12T03:43:30;23.60;;;22.40;;
14874;SDS011;7529;48.170;17.138;2022-09-12T03:47:42;21.95;;;20.85;;
14874;SDS011;7529;48.170;17.138;2022-09-12T03:51:53;19.15;;;18.15;;
14874;SDS011;7529;48.170;17.138;2022-09-12T03:56:09;19.20;;;18.30;;
14874;SDS011;7529;48.170;17.138;2022-09-12T04:00:23;37.08;;;35.28;;
14874;SDS011;7529;48.170;17.138;2022-09-12T04:04:35;29.35;;;27.95;;
14874;SDS011;7529;48.170;17.138;2022-09-12T04:08:47;29.35;;;27.95;;
14874;SDS011;7529;48.170;17.138;2022-09-12T04:13:01;30.05;;;28.55;;
14874;SDS011;7529;48.170;17.138;2022-09-12T04:17:13;26.23;;;24.95;;
14874;SDS011;7529;48.170;17.138;2022-09-12T04:21:25;33.25;;;31.55;;
14874;SDS011;7529;48.170;17.138;2022-09-12T04:25:37;32.78;;;31.17;;
14874;SDS011;7529;48.170;17.138;2022-09-12T04:29:49;19.58;;;18.55;;
14874;SDS011;7529;48.170;17.138;2022-09-12T04:34:01;22.23;;;21.08;;
14874;SDS011;7529;48.170;17.138;2022-09-12T04:38:13;20.98;;;19.88;;
14874;SDS011;7529;48.170;17.138;2022-09-12T04:42:24;26.73;;;25.35;;
14874;SDS011;7529;48.170;17.138;2022-09-12T04:46:37;17.67;;;16.77;;
14874;SDS011;7529;48.170;17.138;2022-09-12T04:50:52;15.02;;;14.23;;
14874;SDS011;7529;48.170;17.138;2022-09-12T04:55:04;16.85;;;16.00;;
14874;SDS011;7529;48.170;17.138;2022-09-12T04:59:18;14.85;;;14.05;;
14874;SDS011;7529;48.170;17.138;2022-09-12T05:03:31;16.02;;;15.23;;
14874;SDS011;7529;48.170;17.138;2022-09-12T05:07:43;10.02;;;9.52;;
14874;SDS011;7529;48.170;17.138;2022-09-12T05:11:55;12.45;;;11.75;;
14874;SDS011;7529;48.170;17.138;2022-09-12T05:16:09;14.85;;;13.95;;
14874;SDS011;7529;48.170;17.138;2022-09-12T05:20:23;13.60;;;12.82;;
14874;SDS011;7529;48.170;17.138;2022-09-12T05:24:34;14.43;;;13.60;;
14874;SDS011;7529;48.170;17.138;2022-09-12T05:28:50;16.40;;;15.50;;
14874;SDS011;7529;48.170;17.138;2022-09-12T05:33:02;9.07;;;8.57;;
14874;SDS011;7529;48.170;17.138;2022-09-12T05:37:14;11.05;;;10.45;;
14874;SDS011;7529;48.170;17.138;2022-09-12T05:41:27;9.35;;;8.77;;
14874;SDS011;7529;48.170;17.138;2022-09-12T05:45:41;9.02;;;8.52;;
14874;SDS011;7529;48.170;17.138;2022-09-12T05:49:53;11.10;;;10.50;;
14874;SDS011;7529;48.170;17.138;2022-09-12T05:54:05;10.25;;;9.55;;
14874;SDS011;7529;48.170;17.138;2022-09-12T05:58:19;8.60;;;8.10;;
14874;SDS011;7529;48.170;17.138;2022-09-12T06:02:32;9.50;;;8.98;;
14874;SDS011;7529;48.170;17.138;2022-09-12T06:06:44;9.32;;;8.82;;
14874;SDS011;7529;48.170;17.138;2022-09-12T06:11:00;9.70;;;9.20;;
14874;SDS011;7529;48.170;17.138;2022-09-12T06:15:13;9.25;;;8.75;;
14874;SDS011;7529;48.170;17.138;2022-09-12T06:19:26;10.10;;;9.30;;
14874;SDS011;7529;48.170;17.138;2022-09-12T06:23:38;7.90;;;7.47;;
14874;SDS011;7529;48.170;17.138;2022-09-12T06:27:51;7.82;;;7.40;;
14874;SDS011;7529;48.170;17.138;2022-09-12T06:32:02;8.70;;;8.13;;
14874;SDS011;7529;48.170;17.138;2022-09-12T06:36:24;8.75;;;8.15;;
14874;SDS011;7529;48.170;17.138;2022-09-12T06:40:41;8.07;;;7.63;;
14874;SDS011;7529;48.170;17.138;2022-09-12T06:44:57;8.82;;;8.23;;
14874;SDS011;7529;48.170;17.138;2022-09-12T06:49:08;8.52;;;8.05;;
14874;SDS011;7529;48.170;17.138;2022-09-12T06:53:20;8.57;;;7.97;;
14874;SDS011;7529;48.170;17.138;2022-09-12T06:57:32;8.68;;;8.13;;
14874;SDS011;7529;48.170;17.138;2022-09-12T07:01:46;8.60;;;8.10;;
14874;SDS011;7529;48.170;17.138;2022-09-12T07:06:04;9.85;;;9.35;;
14874;SDS011;7529;48.170;17.138;2022-09-12T07:10:18;9.80;;;9.30;;
14874;SDS011;7529;48.170;17.138;2022-09-12T07:14:30;8.30;;;7.80;;
14874;SDS011;7529;48.170;17.138;2022-09-12T07:18:42;9.13;;;8.60;;
14874;SDS011;7529;48.170;17.138;2022-09-12T07:22:55;10.57;;;9.98;;
14874;SDS011;7529;48.170;17.138;2022-09-12T07:27:07;10.15;;;9.55;;
14874;SDS011;7529;48.170;17.138;2022-09-12T07:31:20;11.25;;;10.55;;
14874;SDS011;7529;48.170;17.138;2022-09-12T07:35:34;9.75;;;9.25;;
14874;SDS011;7529;48.170;17.138;2022-09-12T07:39:47;11.05;;;10.55;;
14874;SDS011;7529;48.170;17.138;2022-09-12T07:43:59;10.02;;;9.45;;
14874;SDS011;7529;48.170;17.138;2022-09-12T07:48:13;11.63;;;10.98;;
14874;SDS011;7529;48.170;17.138;2022-09-12T07:52:26;12.70;;;11.77;;
14874;SDS011;7529;48.170;17.138;2022-09-12T07:56:37;6.95;;;6.55;;
14874;SDS011;7529;48.170;17.138;2022-09-12T08:00:51;23.90;;;22.67;;
14874;SDS011;7529;48.170;17.138;2022-09-12T08:05:02;16.30;;;15.50;;
14874;SDS011;7529;48.170;17.138;2022-09-12T08:09:14;11.82;;;11.02;;
14874;SDS011;7529;48.170;17.138;2022-09-12T08:13:27;12.38;;;11.30;;
14874;SDS011;7529;48.170;17.138;2022-09-12T08:17:39;8.05;;;7.60;;
14874;SDS011;7529;48.170;17.138;2022-09-12T08:21:51;34.17;;;32.58;;
14874;SDS011;7529;48.170;17.138;2022-09-12T08:26:04;12.27;;;11.50;;
14874;SDS011;7529;48.170;17.138;2022-09-12T08:30:16;17.27;;;16.27;;
14874;SDS011;7529;48.170;17.138;2022-09-12T08:34:28;16.40;;;15.50;;
14874;SDS011;7529;48.170;17.138;2022-09-12T08:38:41;14.90;;;14.10;;
14874;SDS011;7529;48.170;17.138;2022-09-12T08:43:02;11.48;;;10.75;;
14874;SDS011;7529;48.170;17.138;2022-09-12T08:47:44;9.57;;;8.95;;
14874;SDS011;7529;48.170;17.138;2022-09-12T08:51:58;9.88;;;9.27;;
14874;SDS011;7529;48.170;17.138;2022-09-12T08:56:16;9.40;;;8.80;;
14874;SDS011;7529;48.170;17.138;2022-09-12T09:15:33;9.98;;;9.48;;
14874;SDS011;7529;48.170;17.138;2022-09-12T09:20:09;8.20;;;7.68;;
14874;SDS011;7529;48.170;17.138;2022-09-12T09:24:42;13.70;;;13.00;;
14874;SDS011;7529;48.170;17.138;2022-09-12T09:29:05;10.23;;;9.50;;
14874;SDS011;7529;48.170;17.138;2022-09-12T09:33:34;8.75;;;8.25;;
14874;SDS011;7529;48.170;17.138;2022-09-12T09:42:43;7.00;;;6.40;;
14874;SDS011;7529;48.170;17.138;2022-09-12T09:47:20;6.40;;;6.00;;
14874;SDS011;7529;48.170;17.138;2022-09-12T09:51:34;5.43;;;5.13;;
14874;SDS011;7529;48.170;17.138;2022-09-12T09:55:48;8.07;;;7.68;;
14874;SDS011;7529;48.170;17.138;2022-09-12T10:04:40;3.65;;;3.30;;
14874;SDS011;7529;48.170;17.138;2022-09-12T10:09:09;3.80;;;3.50;;
14874;SDS011;7529;48.170;17.138;2022-09-12T10:17:48;5.43;;;5.13;;
14874;SDS011;7529;48.170;17.138;2022-09-12T10:22:03;4.70;;;4.40;;
14874;SDS011;7529;48.170;17.138;2022-09-12T10:26:17;4.53;;;4.07;;
14874;SDS011;7529;48.170;17.138;2022-09-12T10:30:31;4.05;;;3.75;;
14874;SDS011;7529;48.170;17.138;2022-09-12T10:34:44;6.72;;;3.72;;
14874;SDS011;7529;48.170;17.138;2022-09-12T10:38:56;4.78;;;4.43;;
14874;SDS011;7529;48.170;17.138;2022-09-12T10:43:17;3.92;;;3.63;;
14874;SDS011;7529;48.170;17.138;2022-09-12T10:47:39;3.47;;;3.28;;
14874;SDS011;7529;48.170;17.138;2022-09-12T10:51:52;3.38;;;3.17;;
14874;SDS011;7529;48.170;17.138;2022-09-12T11:00:21;4.70;;;4.45;;
14874;SDS011;7529;48.170;17.138;2022-09-12T11:27:58;8.55;;;8.15;;
14874;SDS011;7529;48.170;17.138;2022-09-12T11:41:38;4.93;;;4.70;;
14874;SDS011;7529;48.170;17.138;2022-09-12T11:46:08;5.68;;;5.38;;
14874;SDS011;7529;48.170;17.138;2022-09-12T11:50:46;4.35;;;4.05;;
14874;SDS011;7529;48.170;17.138;2022-09-12T11:55:01;4.47;;;4.07;;
14874;SDS011;7529;48.170;17.138;2022-09-12T11:59:31;5.07;;;4.68;;
14874;SDS011;7529;48.170;17.138;2022-09-12T12:04:19;3.67;;;3.47;;
14874;SDS011;7529;48.170;17.138;2022-09-12T12:08:40;3.30;;;3.10;;
14874;SDS011;7529;48.170;17.138;2022-09-12T12:12:54;3.53;;;3.35;;
14874;SDS011;7529;48.170;17.138;2022-09-12T12:17:12;3.75;;;3.55;;
14874;SDS011;7529;48.170;17.138;2022-09-12T12:25:56;3.30;;;3.20;;
14874;SDS011;7529;48.170;17.138;2022-09-12T12:34:49;4.60;;;4.20;;
14874;SDS011;7529;48.170;17.138;2022-09-12T12:49:07;7.70;;;7.20;;
14874;SDS011;7529;48.170;17.138;2022-09-12T12:53:34;12.02;;;11.23;;
14874;SDS011;7529;48.170;17.138;2022-09-12T12:57:52;17.38;;;16.58;;
14874;SDS011;7529;48.170;17.138;2022-09-12T13:02:14;25.50;;;24.27;;
14874;SDS011;7529;48.170;17.138;2022-09-12T13:06:39;17.15;;;16.35;;
14874;SDS011;7529;48.170;17.138;2022-09-12T13:10:55;14.45;;;13.80;;
14874;SDS011;7529;48.170;17.138;2022-09-12T13:19:49;11.20;;;10.57;;
14874;SDS011;7529;48.170;17.138;2022-09-12T13:24:11;8.30;;;7.90;;
14874;SDS011;7529;48.170;17.138;2022-09-12T13:28:26;9.65;;;9.15;;
14874;SDS011;7529;48.170;17.138;2022-09-12T13:32:41;11.43;;;10.93;;
14874;SDS011;7529;48.170;17.138;2022-09-12T13:46:38;4.60;;;4.40;;
14874;SDS011;7529;48.170;17.138;2022-09-12T13:50:54;4.43;;;4.22;;
14874;SDS011;7529;48.170;17.138;2022-09-12T13:55:14;4.88;;;4.60;;
14874;SDS011;7529;48.170;17.138;2022-09-12T14:00:16;4.55;;;4.32;;
14874;SDS011;7529;48.170;17.138;2022-09-12T14:04:30;5.53;;;5.13;;
14874;SDS011;7529;48.170;17.138;2022-09-12T14:09:02;8.65;;;8.07;;
14874;SDS011;7529;48.170;17.138;2022-09-12T14:13:25;7.38;;;6.95;;
14874;SDS011;7529;48.170;17.138;2022-09-12T14:17:46;8.95;;;8.45;;
14874;SDS011;7529;48.170;17.138;2022-09-12T14:22:01;10.13;;;9.48;;
14874;SDS011;7529;48.170;17.138;2022-09-12T14:26:14;13.88;;;13.27;;
14874;SDS011;7529;48.170;17.138;2022-09-12T14:30:31;24.27;;;23.13;;
14874;SDS011;7529;48.170;17.138;2022-09-12T14:39:32;27.08;;;25.67;;
14874;SDS011;7529;48.170;17.138;2022-09-12T14:43:51;8.80;;;8.40;;
14874;SDS011;7529;48.170;17.138;2022-09-12T14:48:12;14.13;;;13.40;;
14874;SDS011;7529;48.170;17.138;2022-09-12T14:52:29;17.85;;;17.05;;
14874;SDS011;7529;48.170;17.138;2022-09-12T14:56:52;24.42;;;23.33;;
14874;SDS011;7529;48.170;17.138;2022-09-12T15:05:28;19.40;;;18.48;;
14874;SDS011;7529;48.170;17.138;2022-09-12T15:09:40;28.35;;;26.92;;
14874;SDS011;7529;48.170;17.138;2022-09-12T15:13:52;24.30;;;23.20;;
14874;SDS011;7529;48.170;17.138;2022-09-12T15:18:04;15.65;;;14.95;;
14874;SDS011;7529;48.170;17.138;2022-09-12T15:22:16;10.68;;;10.07;;
14874;SDS011;7529;48.170;17.138;2022-09-12T15:26:29;8.18;;;7.78;;
14874;SDS011;7529;48.170;17.138;2022-09-12T15:30:43;7.47;;;7.00;;
14874;SDS011;7529;48.170;17.138;2022-09-12T15:34:55;7.35;;;7.05;;
14874;SDS011;7529;48.170;17.138;2022-09-12T15:39:07;7.05;;;6.75;;
14874;SDS011;7529;48.170;17.138;2022-09-12T15:43:20;12.95;;;12.35;;
14874;SDS011;7529;48.170;17.138;2022-09-12T15:47:32;26.05;;;24.95;;
14874;SDS011;7529;48.170;17.138;2022-09-12T15:51:45;30.73;;;29.42;;
14874;SDS011;7529;48.170;17.138;2022-09-12T15:55:58;39.55;;;37.85;;
14874;SDS011;7529;48.170;17.138;2022-09-12T16:00:11;39.20;;;37.55;;
14874;SDS011;7529;48.170;17.138;2022-09-12T16:04:25;42.50;;;40.70;;
14874;SDS011;7529;48.170;17.138;2022-09-12T16:08:39;47.10;;;45.00;;
14874;SDS011;7529;48.170;17.138;2022-09-12T16:12:51;20.25;;;19.15;;
14874;SDS011;7529;48.170;17.138;2022-09-12T16:17:04;16.55;;;15.85;;
14874;SDS011;7529;48.170;17.138;2022-09-12T16:21:17;16.30;;;15.60;;
14874;SDS011;7529;48.170;17.138;2022-09-12T16:25:29;13.95;;;13.27;;
14874;SDS011;7529;48.170;17.138;2022-09-12T16:29:40;12.32;;;11.82;;
14874;SDS011;7529;48.170;17.138;2022-09-12T16:33:52;10.85;;;10.35;;
14874;SDS011;7529;48.170;17.138;2022-09-12T16:38:04;8.80;;;8.40;;
14874;SDS011;7529;48.170;17.138;2022-09-12T16:42:17;8.50;;;8.10;;
14874;SDS011;7529;48.170;17.138;2022-09-12T16:46:28;8.18;;;7.70;;
14874;SDS011;7529;48.170;17.138;2022-09-12T16:50:40;8.98;;;8.57;;
14874;SDS011;7529;48.170;17.138;2022-09-12T16:54:52;8.95;;;8.48;;
14874;SDS011;7529;48.170;17.138;2022-09-12T16:59:04;8.55;;;8.18;;
14874;SDS011;7529;48.170;17.138;2022-09-12T17:03:16;12.80;;;12.20;;
14874;SDS011;7529;48.170;17.138;2022-09-12T17:07:28;12.02;;;11.43;;
14874;SDS011;7529;48.170;17.138;2022-09-12T17:11:40;18.08;;;17.25;;
14874;SDS011;7529;48.170;17.138;2022-09-12T17:15:53;24.05;;;22.92;;
14874;SDS011;7529;48.170;17.138;2022-09-12T17:20:07;31.80;;;30.38;;
14874;SDS011;7529;48.170;17.138;2022-09-12T17:24:19;26.42;;;25.27;;
14874;SDS011;7529;48.170;17.138;2022-09-12T17:28:31;32.05;;;30.63;;
14874;SDS011;7529;48.170;17.138;2022-09-12T17:32:43;25.98;;;24.90;;
14874;SDS011;7529;48.170;17.138;2022-09-12T17:36:55;30.10;;;28.77;;
14874;SDS011;7529;48.170;17.138;2022-09-12T17:41:14;28.52;;;27.27;;
14874;SDS011;7529;48.170;17.138;2022-09-12T17:45:29;31.52;;;30.13;;
14874;SDS011;7529;48.170;17.138;2022-09-12T17:49:41;44.17;;;42.30;;
14874;SDS011;7529;48.170;17.138;2022-09-12T17:54:03;53.60;;;51.17;;
14874;SDS011;7529;48.170;17.138;2022-09-12T17:58:26;47.05;;;44.97;;
14874;SDS011;7529;48.170;17.138;2022-09-12T18:02:37;49.47;;;47.33;;
14874;SDS011;7529;48.170;17.138;2022-09-12T18:06:51;38.35;;;36.70;;
14874;SDS011;7529;48.170;17.138;2022-09-12T18:11:03;41.72;;;39.85;;
14874;SDS011;7529;48.170;17.138;2022-09-12T18:15:15;38.85;;;37.13;;
14874;SDS011;7529;48.170;17.138;2022-09-12T18:19:27;37.33;;;35.72;;
14874;SDS011;7529;48.170;17.138;2022-09-12T18:23:39;57.28;;;54.70;;
14874;SDS011;7529;48.170;17.138;2022-09-12T18:27:51;55.95;;;53.55;;
14874;SDS011;7529;48.170;17.138;2022-09-12T18:32:05;80.45;;;76.32;;
14874;SDS011;7529;48.170;17.138;2022-09-12T18:36:17;114.43;;;108.53;;
14874;SDS011;7529;48.170;17.138;2022-09-12T18:40:30;107.15;;;102.35;;
14874;SDS011;7529;48.170;17.138;2022-09-12T18:44:41;98.47;;;94.18;;
14874;SDS011;7529;48.170;17.138;2022-09-12T18:48:53;64.80;;;62.05;;
14874;SDS011;7529;48.170;17.138;2022-09-12T18:53:08;94.82;;;90.18;;
14874;SDS011;7529;48.170;17.138;2022-09-12T18:57:20;67.30;;;64.47;;
14874;SDS011;7529;48.170;17.138;2022-09-12T19:01:35;56.45;;;53.95;;
14874;SDS011;7529;48.170;17.138;2022-09-12T19:05:48;65.18;;;62.38;;
14874;SDS011;7529;48.170;17.138;2022-09-12T19:09:59;70.85;;;67.60;;
14874;SDS011;7529;48.170;17.138;2022-09-12T19:14:11;81.43;;;77.95;;
14874;SDS011;7529;48.170;17.138;2022-09-12T19:18:22;63.10;;;60.42;;
14874;SDS011;7529;48.170;17.138;2022-09-12T19:22:34;80.95;;;77.55;;
14874;SDS011;7529;48.170;17.138;2022-09-12T19:26:47;82.93;;;79.10;;
14874;SDS011;7529;48.170;17.138;2022-09-12T19:31:08;92.53;;;88.63;;
14874;SDS011;7529;48.170;17.138;2022-09-12T19:35:22;104.38;;;100.03;;
14874;SDS011;7529;48.170;17.138;2022-09-12T19:39:34;94.80;;;90.70;;
14874;SDS011;7529;48.170;17.138;2022-09-12T19:43:46;97.63;;;93.57;;
14874;SDS011;7529;48.170;17.138;2022-09-12T19:47:58;99.68;;;95.43;;
14874;SDS011;7529;48.170;17.138;2022-09-12T19:52:10;79.07;;;75.72;;
14874;SDS011;7529;48.170;17.138;2022-09-12T19:56:22;92.28;;;88.47;;
14874;SDS011;7529;48.170;17.138;2022-09-12T20:00:34;70.60;;;67.38;;
14874;SDS011;7529;48.170;17.138;2022-09-12T20:04:48;70.72;;;67.63;;
14874;SDS011;7529;48.170;17.138;2022-09-12T20:08:59;106.22;;;101.88;;
14874;SDS011;7529;48.170;17.138;2022-09-12T20:13:11;104.47;;;100.15;;
14874;SDS011;7529;48.170;17.138;2022-09-12T20:17:23;120.05;;;115.13;;
14874;SDS011;7529;48.170;17.138;2022-09-12T20:21:35;141.77;;;135.90;;
14874;SDS011;7529;48.170;17.138;2022-09-12T20:25:47;192.57;;;183.65;;
14874;SDS011;7529;48.170;17.138;2022-09-12T20:30:00;196.40;;;186.68;;
14874;SDS011;7529;48.170;17.138;2022-09-12T20:34:16;141.25;;;134.75;;
14874;SDS011;7529;48.170;17.138;2022-09-12T20:38:31;194.00;;;185.07;;
14874;SDS011;7529;48.170;17.138;2022-09-12T20:42:43;145.15;;;138.88;;
14874;SDS011;7529;48.170;17.138;2022-09-12T20:46:56;235.57;;;224.20;;
14874;SDS011;7529;48.170;17.138;2022-09-12T20:51:07;190.20;;;181.38;;
14874;SDS011;7529;48.170;17.138;2022-09-12T20:55:19;406.13;;;381.95;;
14874;SDS011;7529;48.170;17.138;2022-09-12T20:59:30;424.00;;;397.65;;
14874;SDS011;7529;48.170;17.138;2022-09-12T21:03:44;445.17;;;415.63;;
14874;SDS011;7529;48.170;17.138;2022-09-12T21:07:56;426.77;;;398.45;;
14874;SDS011;7529;48.170;17.138;2022-09-12T21:12:11;442.52;;;411.73;;
14874;SDS011;7529;48.170;17.138;2022-09-12T21:16:23;369.17;;;345.30;;
14874;SDS011;7529;48.170;17.138;2022-09-12T21:20:37;236.77;;;225.63;;
14874;SDS011;7529;48.170;17.138;2022-09-12T21:24:49;300.30;;;280.73;;
14874;SDS011;7529;48.170;17.138;2022-09-12T21:29:00;298.00;;;276.85;;
14874;SDS011;7529;48.170;17.138;2022-09-12T21:33:13;318.35;;;295.65;;
14874;SDS011;7529;48.170;17.138;2022-09-12T21:37:25;293.23;;;272.63;;
14874;SDS011;7529;48.170;17.138;2022-09-12T21:41:37;301.13;;;280.08;;
14874;SDS011;7529;48.170;17.138;2022-09-12T21:45:55;338.33;;;316.13;;
14874;SDS011;7529;48.170;17.138;2022-09-12T21:50:10;220.38;;;210.15;;
14874;SDS011;7529;48.170;17.138;2022-09-12T21:54:23;354.88;;;332.23;;
14874;SDS011;7529;48.170;17.138;2022-09-12T21:58:35;377.88;;;352.58;;
14874;SDS011;7529;48.170;17.138;2022-09-12T22:02:47;189.25;;;179.95;;
14874;SDS011;7529;48.170;17.138;2022-09-12T22:06:59;322.25;;;300.80;;
14874;SDS011;7529;48.170;17.138;2022-09-12T22:11:11;351.58;;;328.60;;
14874;SDS011;7529;48.170;17.138;2022-09-12T22:15:23;379.67;;;353.77;;
14874;SDS011;7529;48.170;17.138;2022-09-12T22:19:35;306.73;;;286.90;;
14874;SDS011;7529;48.170;17.138;2022-09-12T22:23:46;322.15;;;301.00;;
14874;SDS011;7529;48.170;17.138;2022-09-12T22:28:17;153.43;;;145.88;;
14874;SDS011;7529;48.170;17.138;2022-09-12T22:32:28;347.08;;;323.63;;
14874;SDS011;7529;48.170;17.138;2022-09-12T22:36:40;388.45;;;361.17;;
14874;SDS011;7529;48.170;17.138;2022-09-12T22:40:51;413.83;;;383.70;;
14874;SDS011;7529;48.170;17.138;2022-09-12T22:45:04;209.15;;;197.38;;
14874;SDS011;7529;48.170;17.138;2022-09-12T22:49:17;409.67;;;380.38;;
14874;SDS011;7529;48.170;17.138;2022-09-12T22:53:29;383.08;;;357.85;;
14874;SDS011;7529;48.170;17.138;2022-09-12T22:57:40;409.85;;;383.08;;
14874;SDS011;7529;48.170;17.138;2022-09-12T23:01:52;408.52;;;381.95;;
14874;SDS011;7529;48.170;17.138;2022-09-12T23:06:03;371.13;;;347.77;;
14874;SDS011;7529;48.170;17.138;2022-09-12T23:10:16;134.77;;;128.93;;
14874;SDS011;7529;48.170;17.138;2022-09-12T23:14:27;158.63;;;151.50;;
14874;SDS011;7529;48.170;17.138;2022-09-12T23:18:39;295.30;;;278.10;;
14874;SDS011;7529;48.170;17.138;2022-09-12T23:22:50;315.55;;;296.10;;
14874;SDS011;7529;48.170;17.138;2022-09-12T23:27:02;368.20;;;344.30;;
14874;SDS011;7529;48.170;17.138;2022-09-12T23:31:14;338.42;;;316.75;;
14874;SDS011;7529;48.170;17.138;2022-09-12T23:35:26;356.85;;;334.75;;
14874;SDS011;7529;48.170;17.138;2022-09-12T23:39:38;362.60;;;338.85;;
14874;SDS011;7529;48.170;17.138;2022-09-12T23:43:50;397.35;;;370.33;;
14874;SDS011;7529;48.170;17.138;2022-09-12T23:48:01;428.55;;;399.55;;
14874;SDS011;7529;48.170;17.138;2022-09-12T23:52:13;414.85;;;387.45;;
14874;SDS011;7529;48.170;17.138;2022-09-12T23:56:24;290.90;;;272.83;;
